createdAt,value
2017-05-17T00:00:10.164Z,86.92
2017-05-17T00:01:23.077Z,87.21
2017-05-17T00:02:35.506Z,86.44
2017-05-17T00:03:48.422Z,86.44
2017-05-17T00:05:01.541Z,86.25
2017-05-17T00:06:14.468Z,85.77
2017-05-17T00:07:26.405Z,86.05
2017-05-17T00:08:39.328Z,86.05
2017-05-17T00:09:51.956Z,85.67
2017-05-17T00:11:04.873Z,86.05
2017-05-17T00:12:17.301Z,85.77
2017-05-17T00:13:30.220Z,86.25
2017-05-17T00:14:43.139Z,86.44
2017-05-17T00:15:56.066Z,86.44
2017-05-17T00:17:08.499Z,85.86
2017-05-17T00:18:20.978Z,86.34
2017-05-17T00:19:33.902Z,86.25
2017-05-17T00:20:47.129Z,86.25
2017-05-17T00:22:00.051Z,86.25
2017-05-17T00:23:12.970Z,86.25
2017-05-17T00:24:25.888Z,86.82
2017-05-17T00:25:38.315Z,86.82
2017-05-17T00:26:51.237Z,86.92
2017-05-17T00:28:04.153Z,87.01
2017-05-17T00:29:16.093Z,87.01
2017-05-17T00:30:29.009Z,87.01
2017-05-17T00:31:41.922Z,87.01
2017-05-17T00:32:53.858Z,87.01
2017-05-17T00:34:06.778Z,87.21
2017-05-17T00:35:19.746Z,86.82
2017-05-17T00:36:32.663Z,87.4
2017-05-17T00:37:45.582Z,87.4
2017-05-17T00:38:58.499Z,86.72
2017-05-17T00:40:11.420Z,86.92
2017-05-17T00:41:24.390Z,87.3
2017-05-17T00:42:51.351Z,87.3
2017-05-17T00:44:04.275Z,87.68
2017-05-17T00:45:17.195Z,87.68
2017-05-17T00:46:30.115Z,87.64
2017-05-17T00:47:43.238Z,88.17
2017-05-17T00:48:56.154Z,87.59
2017-05-17T00:50:09.075Z,87.88
2017-05-17T00:51:21.994Z,88.17
2017-05-17T00:52:34.910Z,87.98
2017-05-17T00:53:48.027Z,88.35
2017-05-17T00:55:00.954Z,88.51
2017-05-17T00:56:13.873Z,88.22
2017-05-17T00:57:26.299Z,88.31
2017-05-17T00:58:39.417Z,88.6
2017-05-17T00:59:52.337Z,89.18
2017-05-17T01:01:05.259Z,88.98
2017-05-17T01:02:17.691Z,89.22
2017-05-17T01:03:30.606Z,88.6
2017-05-17T01:04:43.520Z,88.51
2017-05-17T01:05:56.436Z,88.6
2017-05-17T01:07:09.361Z,88.45
2017-05-17T01:08:21.785Z,88.55
2017-05-17T01:09:34.420Z,88.31
2017-05-17T01:10:47.338Z,89.12
2017-05-17T01:12:00.287Z,89.18
2017-05-17T01:13:12.716Z,88.22
2017-05-17T01:14:25.141Z,88.51
2017-05-17T01:15:38.057Z,87.88
2017-05-17T01:16:51.025Z,87.93
2017-05-17T01:18:04.001Z,86.97
2017-05-17T01:19:16.925Z,86.78
2017-05-17T01:20:30.046Z,86.78
2017-05-17T01:21:42.966Z,86.97
2017-05-17T01:22:55.938Z,86.58
2017-05-17T01:24:08.858Z,86.88
2017-05-17T01:25:21.777Z,86.49
2017-05-17T01:26:34.690Z,86.58
2017-05-17T01:27:47.606Z,87.11
2017-05-17T01:29:00.564Z,86.58
2017-05-17T01:30:13.493Z,87.07
2017-05-17T01:31:26.423Z,86.78
2017-05-17T01:32:38.861Z,87.07
2017-05-17T01:33:51.777Z,86.97
2017-05-17T01:35:04.692Z,86.97
2017-05-17T01:36:17.607Z,86.97
2017-05-17T01:37:30.524Z,87.16
2017-05-17T01:38:43.439Z,86.97
2017-05-17T01:39:55.867Z,86.88
2017-05-17T01:41:08.847Z,87.64
2017-05-17T01:42:21.768Z,87.93
2017-05-17T01:43:34.695Z,88.02
2017-05-17T01:44:47.613Z,88.6
2017-05-17T01:46:00.525Z,88.98
2017-05-17T01:47:13.443Z,88.7
2017-05-17T01:48:26.570Z,88.79
2017-05-17T01:49:38.998Z,88.98
2017-05-17T01:50:51.919Z,89.27
2017-05-17T01:52:04.834Z,88.51
2017-05-17T01:53:17.262Z,89.47
2017-05-17T01:54:29.701Z,89.37
2017-05-17T01:55:42.640Z,89.37
2017-05-17T01:56:55.560Z,89.75
2017-05-17T01:58:08.476Z,89.75
2017-05-17T01:59:21.202Z,89.75
2017-05-17T02:00:34.122Z,89.94
2017-05-17T02:01:47.039Z,89.85
2017-05-17T02:02:59.954Z,89.65
2017-05-17T02:04:12.874Z,89.65
2017-05-17T02:05:25.792Z,89.65
2017-05-17T02:06:38.709Z,89.47
2017-05-17T02:07:51.626Z,90.04
2017-05-17T02:09:04.064Z,90.14
2017-05-17T02:10:16.983Z,89.94
2017-05-17T02:11:29.898Z,90.23
2017-05-17T02:12:42.850Z,90.33
2017-05-17T02:13:55.917Z,91
2017-05-17T02:15:08.975Z,90.81
2017-05-17T02:16:22.022Z,90.67
2017-05-17T02:17:35.064Z,90.57
2017-05-17T02:18:48.112Z,91.05
2017-05-17T02:20:01.168Z,91.05
2017-05-17T02:21:14.508Z,90.76
2017-05-17T02:22:27.051Z,90.61
2017-05-17T02:23:40.095Z,90.9
2017-05-17T02:24:53.146Z,90.81
2017-05-17T02:26:06.398Z,91
2017-05-17T02:27:18.940Z,90.61
2017-05-17T02:28:32.030Z,91.09
2017-05-17T02:29:45.072Z,91
2017-05-17T02:30:58.129Z,91
2017-05-17T02:32:11.169Z,90.9
2017-05-17T02:33:23.726Z,90.71
2017-05-17T02:34:36.764Z,90.71
2017-05-17T02:35:49.802Z,90.61
2017-05-17T02:37:02.843Z,90.61
2017-05-17T02:38:15.890Z,90.81
2017-05-17T02:39:28.939Z,90.81
2017-05-17T02:40:41.986Z,90.9
2017-05-17T02:41:55.026Z,90.81
2017-05-17T02:43:08.067Z,90.61
2017-05-17T02:44:21.108Z,90.61
2017-05-17T02:45:34.114Z,90.9
2017-05-17T02:46:47.018Z,90.23
2017-05-17T02:47:59.919Z,90.61
2017-05-17T02:49:12.838Z,90.33
2017-05-17T02:50:25.735Z,90.04
2017-05-17T02:51:38.630Z,90.23
2017-05-17T02:52:51.041Z,90.42
2017-05-17T02:54:04.255Z,90.23
2017-05-17T02:55:17.214Z,90.33
2017-05-17T02:56:30.121Z,90.52
2017-05-17T02:57:43.021Z,90.38
2017-05-17T02:58:56.125Z,90.19
2017-05-17T03:00:09.035Z,90.23
2017-05-17T03:01:21.461Z,90.28
2017-05-17T03:02:34.379Z,90.42
2017-05-17T03:03:47.301Z,90.52
2017-05-17T03:05:00.425Z,90.42
2017-05-17T03:06:13.343Z,90.52
2017-05-17T03:07:25.773Z,90.71
2017-05-17T03:08:38.204Z,90.57
2017-05-17T03:09:51.322Z,90.47
2017-05-17T03:11:04.238Z,90.61
2017-05-17T03:12:17.156Z,90.86
2017-05-17T03:13:30.077Z,90.86
2017-05-17T03:14:43.003Z,91.05
2017-05-17T03:15:55.919Z,91.24
2017-05-17T03:17:08.345Z,91.63
2017-05-17T03:18:20.814Z,91.34
2017-05-17T03:19:33.252Z,91.53
2017-05-17T03:20:46.171Z,91.43
2017-05-17T03:21:59.087Z,91.34
2017-05-17T03:23:12.006Z,91.63
2017-05-17T03:24:24.433Z,91.72
2017-05-17T03:25:37.351Z,92.1
2017-05-17T03:26:50.470Z,92.1
2017-05-17T03:28:03.396Z,91.72
2017-05-17T03:29:15.819Z,91.72
2017-05-17T03:30:28.738Z,91.91
2017-05-17T03:31:41.956Z,92.1
2017-05-17T03:32:54.877Z,91.91
2017-05-17T03:34:07.791Z,92.3
2017-05-17T03:35:20.219Z,92.3
2017-05-17T03:36:33.143Z,92.39
2017-05-17T03:38:00.106Z,92.68
2017-05-17T03:39:13.058Z,92.68
2017-05-17T03:40:25.481Z,92.68
2017-05-17T03:41:38.395Z,92.58
2017-05-17T03:42:51.510Z,92.58
2017-05-17T03:44:04.425Z,92.39
2017-05-17T03:45:17.344Z,93.35
2017-05-17T03:46:29.772Z,93.06
2017-05-17T03:47:42.694Z,93.26
2017-05-17T03:48:55.612Z,93.06
2017-05-17T03:50:08.523Z,94.12
2017-05-17T03:51:20.949Z,94.02
2017-05-17T03:52:33.374Z,93.54
2017-05-17T03:53:46.493Z,93.83
2017-05-17T03:54:59.447Z,94.31
2017-05-17T03:56:12.499Z,94.31
2017-05-17T03:57:25.559Z,93.83
2017-05-17T03:58:38.916Z,93.83
2017-05-17T03:59:51.970Z,93.73
2017-05-17T04:01:05.030Z,93.73
2017-05-17T04:02:18.090Z,93.93
2017-05-17T04:03:31.147Z,93.93
2017-05-17T04:04:44.005Z,93.73
2017-05-17T04:05:57.078Z,94.02
2017-05-17T04:07:10.135Z,94.4
2017-05-17T04:08:23.196Z,94.21
2017-05-17T04:09:36.458Z,94.21
2017-05-17T04:10:49.513Z,94.21
2017-05-17T04:12:02.070Z,94.12
2017-05-17T04:13:14.628Z,94.12
2017-05-17T04:14:27.684Z,94.12
2017-05-17T04:15:40.939Z,94.21
2017-05-17T04:16:54.016Z,94.4
2017-05-17T04:18:07.095Z,94.31
2017-05-17T04:19:20.160Z,93.93
2017-05-17T04:20:33.520Z,93.93
2017-05-17T04:21:46.082Z,93.54
2017-05-17T04:22:59.149Z,93.59
2017-05-17T04:24:12.211Z,93.59
2017-05-17T04:25:25.270Z,93.97
2017-05-17T04:26:52.344Z,93.78
2017-05-17T04:28:04.893Z,93.97
2017-05-17T04:29:17.360Z,93.97
2017-05-17T04:30:29.769Z,93.78
2017-05-17T04:31:42.873Z,93.97
2017-05-17T04:32:55.768Z,93.78
2017-05-17T04:34:08.665Z,93.97
2017-05-17T04:35:21.071Z,93.11
2017-05-17T04:36:33.476Z,93.11
2017-05-17T04:37:46.380Z,92.82
2017-05-17T04:38:58.802Z,92.63
2017-05-17T04:40:11.701Z,92.86
2017-05-17T04:41:24.601Z,92.34
2017-05-17T04:42:37.704Z,91.77
2017-05-17T04:43:50.595Z,92.15
2017-05-17T04:45:03.492Z,92.19
2017-05-17T04:46:16.435Z,91.42
2017-05-17T04:47:28.847Z,91.72
2017-05-17T04:48:41.748Z,91.81
2017-05-17T04:49:54.642Z,91.91
2017-05-17T04:51:07.050Z,91.81
2017-05-17T04:52:19.953Z,91.62
2017-05-17T04:53:33.057Z,91.72
2017-05-17T04:54:45.959Z,91.72
2017-05-17T04:55:58.854Z,91.91
2017-05-17T04:57:11.276Z,91.72
2017-05-17T04:58:24.177Z,91.72
2017-05-17T04:59:37.079Z,91.62
2017-05-17T05:00:49.976Z,91.81
2017-05-17T05:02:02.872Z,91.81
2017-05-17T05:03:15.282Z,91.42
2017-05-17T05:04:28.385Z,91.81
2017-05-17T05:05:40.794Z,92.1
2017-05-17T05:06:53.202Z,92.19
2017-05-17T05:08:06.101Z,92
2017-05-17T05:09:18.513Z,91.81
2017-05-17T05:10:31.608Z,91.81
2017-05-17T05:11:44.506Z,91.91
2017-05-17T05:12:57.406Z,91.91
2017-05-17T05:14:10.268Z,91.86
2017-05-17T05:15:23.051Z,92.39
2017-05-17T05:16:35.350Z,91.96
2017-05-17T05:17:48.126Z,92.63
2017-05-17T05:19:00.923Z,92.82
2017-05-17T05:20:13.702Z,92.77
2017-05-17T05:21:25.997Z,92.77
2017-05-17T05:22:38.295Z,92.77
2017-05-17T05:23:51.074Z,92.96
2017-05-17T05:25:03.376Z,93.15
2017-05-17T05:26:16.453Z,92.77
2017-05-17T05:27:29.233Z,92.86
2017-05-17T05:28:41.528Z,92.77
2017-05-17T05:29:54.309Z,92.91
2017-05-17T05:31:07.097Z,92.68
2017-05-17T05:32:20.079Z,92.48
2017-05-17T05:33:32.904Z,93.25
2017-05-17T05:34:44.719Z,93.06
2017-05-17T05:35:57.498Z,92.86
2017-05-17T05:37:09.905Z,92.96
2017-05-17T05:38:22.825Z,93.06
2017-05-17T05:39:35.253Z,92.86
2017-05-17T05:40:48.173Z,93.15
2017-05-17T05:42:01.106Z,93.35
2017-05-17T05:43:13.538Z,93.44
2017-05-17T05:44:26.460Z,93.06
2017-05-17T05:45:39.379Z,93.35
2017-05-17T05:46:51.810Z,92.96
2017-05-17T05:48:05.029Z,92.96
2017-05-17T05:49:17.467Z,92.96
2017-05-17T05:50:29.900Z,93.35
2017-05-17T05:51:42.819Z,93.06
2017-05-17T05:52:55.746Z,93.06
2017-05-17T05:54:08.673Z,93.44
2017-05-17T05:55:21.650Z,93.15
2017-05-17T05:56:34.565Z,93.15
2017-05-17T05:57:47.485Z,93.44
2017-05-17T05:59:00.704Z,93.11
2017-05-17T06:00:13.739Z,93.88
2017-05-17T06:01:26.798Z,93.68
2017-05-17T06:02:39.853Z,93.97
2017-05-17T06:03:52.914Z,93.97
2017-05-17T06:05:05.675Z,93.59
2017-05-17T06:06:18.733Z,93.97
2017-05-17T06:07:31.790Z,93.68
2017-05-17T06:08:44.849Z,93.68
2017-05-17T06:09:57.410Z,93.88
2017-05-17T06:11:09.928Z,93.59
2017-05-17T06:12:22.842Z,93.11
2017-05-17T06:13:35.275Z,92.91
2017-05-17T06:14:48.193Z,92.91
2017-05-17T06:16:01.110Z,93.15
2017-05-17T06:17:13.534Z,92.54
2017-05-17T06:18:26.453Z,93.01
2017-05-17T06:19:39.366Z,92.54
2017-05-17T06:20:52.280Z,92.72
2017-05-17T06:22:05.203Z,92.29
2017-05-17T06:23:17.147Z,92.48
2017-05-17T06:24:30.069Z,92.39
2017-05-17T06:25:42.998Z,92.82
2017-05-17T06:26:56.128Z,92.39
2017-05-17T06:28:09.047Z,92.39
2017-05-17T06:29:21.469Z,92.15
2017-05-17T06:30:34.434Z,92.86
2017-05-17T06:31:47.652Z,92.29
2017-05-17T06:33:00.582Z,92.72
2017-05-17T06:34:13.499Z,92.54
2017-05-17T06:35:25.923Z,92.91
2017-05-17T06:36:38.836Z,92.72
2017-05-17T06:37:51.757Z,92.82
2017-05-17T06:39:04.186Z,92.63
2017-05-17T06:40:16.608Z,92.91
2017-05-17T06:41:29.523Z,92.34
2017-05-17T06:42:42.640Z,92.24
2017-05-17T06:43:55.562Z,92.63
2017-05-17T06:45:08.425Z,92.15
2017-05-17T06:46:20.246Z,91.96
2017-05-17T06:47:33.023Z,91.86
2017-05-17T06:48:46.099Z,91.77
2017-05-17T06:49:58.879Z,91.86
2017-05-17T06:51:10.697Z,92
2017-05-17T06:52:22.997Z,91.77
2017-05-17T06:53:36.081Z,91.52
2017-05-17T06:54:48.864Z,91.42
2017-05-17T06:56:01.642Z,91.72
2017-05-17T06:57:14.425Z,91.19
2017-05-17T06:58:25.755Z,91.38
2017-05-17T06:59:38.373Z,91.38
2017-05-17T07:00:51.151Z,91.42
2017-05-17T07:02:03.930Z,91.52
2017-05-17T07:03:16.706Z,91.62
2017-05-17T07:04:29.781Z,91.14
2017-05-17T07:05:42.076Z,91.05
2017-05-17T07:06:54.860Z,90.75
2017-05-17T07:08:07.155Z,91.14
2017-05-17T07:09:19.938Z,90.75
2017-05-17T07:10:33.023Z,91.05
2017-05-17T07:11:45.799Z,90.66
2017-05-17T07:12:58.576Z,90.66
2017-05-17T07:14:11.357Z,90.66
2017-05-17T07:15:24.136Z,90.75
2017-05-17T07:16:36.913Z,90.66
2017-05-17T07:17:49.689Z,90.28
2017-05-17T07:19:02.470Z,90.37
2017-05-17T07:20:14.765Z,90.37
2017-05-17T07:21:26.885Z,90.85
2017-05-17T07:22:39.186Z,90.66
2017-05-17T07:23:51.973Z,90.66
2017-05-17T07:25:04.755Z,90.18
2017-05-17T07:26:17.834Z,89.89
2017-05-17T07:27:30.615Z,90.37
2017-05-17T07:28:43.396Z,89.89
2017-05-17T07:29:56.216Z,89.94
2017-05-17T07:31:09.118Z,90.18
2017-05-17T07:32:22.017Z,90.18
2017-05-17T07:33:34.432Z,90.28
2017-05-17T07:34:47.342Z,90.28
2017-05-17T07:36:00.247Z,89.89
2017-05-17T07:37:13.145Z,89.79
2017-05-17T07:38:25.556Z,90.08
2017-05-17T07:39:38.451Z,90.18
2017-05-17T07:40:51.344Z,89.89
2017-05-17T07:42:03.749Z,89.89
2017-05-17T07:43:16.166Z,89.99
2017-05-17T07:44:29.068Z,90.08
2017-05-17T07:45:41.966Z,89.7
2017-05-17T07:46:54.863Z,90.18
2017-05-17T07:48:21.812Z,90.08
2017-05-17T07:49:34.712Z,89.99
2017-05-17T07:50:47.144Z,90.18
2017-05-17T07:52:00.050Z,90.37
2017-05-17T07:53:12.960Z,89.41
2017-05-17T07:54:25.397Z,89.79
2017-05-17T07:55:37.945Z,89.99
2017-05-17T07:56:50.498Z,90.18
2017-05-17T07:58:03.538Z,89.32
2017-05-17T07:59:16.379Z,89.61
2017-05-17T08:00:29.428Z,89.7
2017-05-17T08:01:42.519Z,89.03
2017-05-17T08:02:55.060Z,88.84
2017-05-17T08:04:07.601Z,88.84
2017-05-17T08:05:20.645Z,88.84
2017-05-17T08:06:33.686Z,88.84
2017-05-17T08:07:45.726Z,88.26
2017-05-17T08:08:58.793Z,88.45
2017-05-17T08:10:11.632Z,88.45
2017-05-17T08:11:24.168Z,88.45
2017-05-17T08:12:37.209Z,88.35
2017-05-17T08:13:50.256Z,88.65
2017-05-17T08:15:03.005Z,88.26
2017-05-17T08:16:16.045Z,88.93
2017-05-17T08:17:29.085Z,88.93
2017-05-17T08:18:42.132Z,88.65
2017-05-17T08:19:55.186Z,88.65
2017-05-17T08:21:08.433Z,87.78
2017-05-17T08:22:20.478Z,87.59
2017-05-17T08:23:33.023Z,87.59
2017-05-17T08:24:46.077Z,88.07
2017-05-17T08:25:59.129Z,88.26
2017-05-17T08:27:11.668Z,88.55
2017-05-17T08:28:24.701Z,88.6
2017-05-17T08:29:37.745Z,88.45
2017-05-17T08:30:50.836Z,88.22
2017-05-17T08:32:03.878Z,88.45
2017-05-17T08:33:16.918Z,88.6
2017-05-17T08:34:28.964Z,88.41
2017-05-17T08:35:42.007Z,89.27
2017-05-17T08:36:55.246Z,89.32
2017-05-17T08:38:08.286Z,88.41
2017-05-17T08:39:21.339Z,88.41
2017-05-17T08:40:33.909Z,89.03
2017-05-17T08:41:46.950Z,88.98
2017-05-17T08:43:00.291Z,88.41
2017-05-17T08:44:13.346Z,88.31
2017-05-17T08:45:26.390Z,88.35
2017-05-17T08:46:38.926Z,88.65
2017-05-17T08:47:51.961Z,88.26
2017-05-17T08:49:05.002Z,88.45
2017-05-17T08:50:17.602Z,88.35
2017-05-17T08:51:30.639Z,88.31
2017-05-17T08:52:43.679Z,88.65
2017-05-17T08:53:55.726Z,88.12
2017-05-17T08:55:08.273Z,88.45
2017-05-17T08:56:20.813Z,88.07
2017-05-17T08:57:33.851Z,88.22
2017-05-17T08:58:46.696Z,88.12
2017-05-17T08:59:59.244Z,87.88
2017-05-17T09:01:11.291Z,87.78
2017-05-17T09:02:24.291Z,87.45
2017-05-17T09:03:37.191Z,87.64
2017-05-17T09:04:50.390Z,87.93
2017-05-17T09:06:03.288Z,87.68
2017-05-17T09:07:15.205Z,87.74
2017-05-17T09:08:28.109Z,87.78
2017-05-17T09:09:41.209Z,87.98
2017-05-17T09:10:54.112Z,87.68
2017-05-17T09:12:07.049Z,87.78
2017-05-17T09:13:19.951Z,87.21
2017-05-17T09:14:32.847Z,87.3
2017-05-17T09:15:46.059Z,87.78
2017-05-17T09:16:58.473Z,87.11
2017-05-17T09:18:11.374Z,87.68
2017-05-17T09:19:23.789Z,87.78
2017-05-17T09:20:36.891Z,87.88
2017-05-17T09:21:49.298Z,87.49
2017-05-17T09:23:02.259Z,87.3
2017-05-17T09:24:14.663Z,87.98
2017-05-17T09:25:26.586Z,87.88
2017-05-17T09:26:39.783Z,87.78
2017-05-17T09:27:52.196Z,88.17
2017-05-17T09:29:05.092Z,87.78
2017-05-17T09:30:17.992Z,88.07
2017-05-17T09:31:31.190Z,87.78
2017-05-17T09:32:44.089Z,87.11
2017-05-17T09:33:56.494Z,87.88
2017-05-17T09:35:09.402Z,87.78
2017-05-17T09:36:22.306Z,88.07
2017-05-17T09:37:35.403Z,88.07
2017-05-17T09:38:47.809Z,87.88
2017-05-17T09:40:00.719Z,87.88
2017-05-17T09:41:13.124Z,88.17
2017-05-17T09:42:26.225Z,87.68
2017-05-17T09:43:39.128Z,87.98
2017-05-17T09:44:52.031Z,87.88
2017-05-17T09:46:04.956Z,87.68
2017-05-17T09:47:17.385Z,88.17
2017-05-17T09:48:30.512Z,87.88
2017-05-17T09:49:43.431Z,88.07
2017-05-17T09:50:56.349Z,87.98
2017-05-17T09:52:08.777Z,88.07
2017-05-17T09:53:21.205Z,87.78
2017-05-17T09:54:34.125Z,87.78
2017-05-17T09:55:46.553Z,87.98
2017-05-17T09:56:59.470Z,87.78
2017-05-17T09:58:12.442Z,87.68
2017-05-17T09:59:24.870Z,87.01
2017-05-17T10:00:37.298Z,87.01
2017-05-17T10:01:49.718Z,86.92
2017-05-17T10:03:02.637Z,87.3
2017-05-17T10:04:15.259Z,87.11
2017-05-17T10:05:28.187Z,87.21
2017-05-17T10:06:40.611Z,86.92
2017-05-17T10:07:53.041Z,86.92
2017-05-17T10:09:05.968Z,87.11
2017-05-17T10:10:19.095Z,87.3
2017-05-17T10:11:32.045Z,87.3
2017-05-17T10:12:44.547Z,87.3
2017-05-17T10:13:57.058Z,87.21
2017-05-17T10:15:09.558Z,87.3
2017-05-17T10:16:22.556Z,87.3
2017-05-17T10:17:35.082Z,87.78
2017-05-17T10:18:48.083Z,87.01
2017-05-17T10:20:01.091Z,87.3
2017-05-17T10:21:14.288Z,86.54
2017-05-17T10:22:26.791Z,86.72
2017-05-17T10:23:39.787Z,86.44
2017-05-17T10:24:51.795Z,86.63
2017-05-17T10:26:04.788Z,86.72
2017-05-17T10:27:17.295Z,86.34
2017-05-17T10:28:29.803Z,86.15
2017-05-17T10:29:42.814Z,86.44
2017-05-17T10:30:55.316Z,86.34
2017-05-17T10:32:08.314Z,86.63
2017-05-17T10:33:21.325Z,86.15
2017-05-17T10:34:34.327Z,86.38
2017-05-17T10:35:47.332Z,86.29
2017-05-17T10:37:00.632Z,85.91
2017-05-17T10:38:13.132Z,86.1
2017-05-17T10:39:26.134Z,86
2017-05-17T10:40:39.130Z,85.52
2017-05-17T10:41:51.630Z,85.04
2017-05-17T10:43:04.129Z,85.91
2017-05-17T10:44:17.372Z,85.91
2017-05-17T10:45:30.375Z,85.52
2017-05-17T10:46:43.355Z,85.52
2017-05-17T10:47:55.492Z,85.71
2017-05-17T10:49:08.407Z,86.1
2017-05-17T10:50:21.329Z,85.91
2017-05-17T10:51:33.755Z,85.71
2017-05-17T10:52:46.672Z,86
2017-05-17T10:53:59.792Z,86.1
2017-05-17T10:55:12.708Z,86.19
2017-05-17T10:56:25.628Z,85.91
2017-05-17T10:57:38.543Z,86
2017-05-17T10:58:51.663Z,85.24
2017-05-17T11:00:04.091Z,85.91
2017-05-17T11:01:17.014Z,85.52
2017-05-17T11:02:29.935Z,86
2017-05-17T11:03:42.362Z,85.91
2017-05-17T11:04:55.035Z,85.52
2017-05-17T11:06:07.959Z,86.1
2017-05-17T11:07:20.385Z,85.91
2017-05-17T11:08:33.313Z,85.71
2017-05-17T11:09:46.304Z,85.71
2017-05-17T11:10:59.238Z,86.05
2017-05-17T11:12:12.160Z,85.57
2017-05-17T11:13:24.588Z,85.18
2017-05-17T11:14:37.460Z,85.08
2017-05-17T11:16:04.321Z,84.89
2017-05-17T11:17:16.631Z,84.6
2017-05-17T11:18:29.412Z,84.51
2017-05-17T11:19:40.752Z,84.51
2017-05-17T11:20:53.531Z,84.51
2017-05-17T11:22:05.347Z,84.8
2017-05-17T11:23:17.643Z,84.89
2017-05-17T11:24:29.945Z,84.41
2017-05-17T11:25:42.727Z,84.7
2017-05-17T11:26:55.025Z,84.12
2017-05-17T11:28:07.323Z,83.93
2017-05-17T11:29:19.628Z,84.41
2017-05-17T11:30:32.410Z,83.84
2017-05-17T11:31:45.398Z,83.64
2017-05-17T11:32:57.694Z,83.36
2017-05-17T11:34:09.993Z,83.36
2017-05-17T11:35:22.299Z,83.16
2017-05-17T11:36:34.596Z,83.36
2017-05-17T11:37:46.906Z,83.74
2017-05-17T11:38:59.213Z,83.54
2017-05-17T11:40:11.520Z,83.74
2017-05-17T11:41:23.818Z,83.64
2017-05-17T11:42:36.897Z,83.87
2017-05-17T11:43:49.199Z,84.12
2017-05-17T11:45:00.534Z,83.78
2017-05-17T11:46:12.831Z,83.84
2017-05-17T11:47:24.950Z,83.49
2017-05-17T11:48:36.771Z,83.4
2017-05-17T11:49:49.555Z,83.3
2017-05-17T11:51:02.058Z,83.3
2017-05-17T11:52:14.360Z,83.4
2017-05-17T11:53:27.153Z,82.82
2017-05-17T11:54:39.935Z,82.82
2017-05-17T11:55:51.752Z,82.34
2017-05-17T11:57:04.050Z,82.05
2017-05-17T11:58:16.353Z,81.76
2017-05-17T11:59:43.258Z,82.15
2017-05-17T12:00:56.186Z,81.38
2017-05-17T12:02:09.101Z,81.09
2017-05-17T12:03:21.528Z,80.99
2017-05-17T12:04:34.650Z,80.42
2017-05-17T12:05:46.588Z,80.22
2017-05-17T12:06:59.504Z,79.94
2017-05-17T12:08:12.429Z,79.84
2017-05-17T12:09:39.438Z,80.22
2017-05-17T12:10:51.916Z,80.22
2017-05-17T12:12:04.345Z,79.84
2017-05-17T12:13:16.779Z,80.42
2017-05-17T12:14:29.707Z,80.8
2017-05-17T12:15:41.655Z,81.09
2017-05-17T12:16:54.567Z,80.9
2017-05-17T12:18:07.045Z,81.28
2017-05-17T12:19:19.961Z,81.09
2017-05-17T12:20:33.188Z,81.38
2017-05-17T12:21:46.114Z,81.38
2017-05-17T12:22:58.051Z,81.48
2017-05-17T12:24:10.483Z,81.67
2017-05-17T12:25:23.401Z,81.28
2017-05-17T12:26:36.327Z,81.28
2017-05-17T12:27:48.263Z,80.9
2017-05-17T12:29:00.692Z,81.19
2017-05-17T12:30:13.646Z,81.28
2017-05-17T12:31:26.949Z,81.19
2017-05-17T12:32:39.461Z,81.09
2017-05-17T12:33:51.966Z,81.67
2017-05-17T12:35:03.976Z,81.67
2017-05-17T12:36:16.777Z,81.86
2017-05-17T12:37:29.781Z,81.23
2017-05-17T12:38:42.297Z,81.48
2017-05-17T12:39:55.300Z,81.81
2017-05-17T12:41:06.877Z,82.29
2017-05-17T12:42:19.381Z,82.05
2017-05-17T12:43:31.887Z,81.67
2017-05-17T12:44:44.889Z,82.29
2017-05-17T12:45:57.889Z,82.43
2017-05-17T12:47:10.588Z,82.19
2017-05-17T12:48:23.098Z,82.19
2017-05-17T12:49:36.104Z,81.99
2017-05-17T12:50:48.612Z,82.38
2017-05-17T12:52:01.114Z,82.82
2017-05-17T12:53:14.313Z,82.82
2017-05-17T12:54:27.313Z,82.57
2017-05-17T12:55:39.830Z,82.48
2017-05-17T12:56:52.832Z,82.57
2017-05-17T12:58:05.834Z,82.96
2017-05-17T12:59:18.841Z,82.76
2017-05-17T13:00:31.843Z,82.67
2017-05-17T13:01:44.837Z,82.86
2017-05-17T13:02:57.341Z,83.06
2017-05-17T13:04:09.846Z,82.38
2017-05-17T13:05:22.848Z,82.76
2017-05-17T13:06:35.847Z,82.48
2017-05-17T13:07:48.352Z,82.29
2017-05-17T13:09:01.669Z,82.48
2017-05-17T13:10:14.173Z,81.99
2017-05-17T13:11:27.170Z,82.09
2017-05-17T13:12:40.172Z,82.38
2017-05-17T13:13:52.676Z,81.99
2017-05-17T13:15:05.180Z,82.04
2017-05-17T13:16:18.180Z,82.23
2017-05-17T13:17:30.681Z,82.32
2017-05-17T13:18:43.194Z,81.75
2017-05-17T13:19:56.502Z,81.46
2017-05-17T13:21:09.502Z,81.94
2017-05-17T13:22:22.009Z,81.75
2017-05-17T13:23:35.007Z,81.46
2017-05-17T13:24:48.010Z,81.37
2017-05-17T13:26:00.512Z,81.94
2017-05-17T13:27:13.016Z,81.17
2017-05-17T13:28:26.014Z,81.27
2017-05-17T13:29:39.007Z,81.27
2017-05-17T13:30:52.295Z,81.17
2017-05-17T13:32:05.276Z,80.79
2017-05-17T13:33:17.772Z,80.3
2017-05-17T13:34:29.764Z,81.07
2017-05-17T13:35:42.746Z,80.06
2017-05-17T13:36:55.927Z,80.83
2017-05-17T13:38:07.901Z,80.63
2017-05-17T13:39:20.315Z,80.15
2017-05-17T13:40:33.223Z,80.15
2017-05-17T13:41:46.426Z,79.53
2017-05-17T13:42:59.437Z,79.58
2017-05-17T13:44:12.342Z,80.15
2017-05-17T13:45:24.761Z,80.06
2017-05-17T13:46:37.662Z,79.77
2017-05-17T13:47:50.564Z,78.81
2017-05-17T13:49:03.470Z,79
2017-05-17T13:50:15.922Z,78.61
2017-05-17T13:51:28.839Z,78.42
2017-05-17T13:52:41.948Z,78.08
2017-05-17T13:53:54.851Z,78.03
2017-05-17T13:55:07.828Z,78.46
2017-05-17T13:56:20.240Z,78.27
2017-05-17T13:57:33.133Z,77.31
2017-05-17T13:58:46.051Z,77.4
2017-05-17T13:59:58.966Z,76.44
2017-05-17T14:01:11.379Z,76.53
2017-05-17T14:02:23.300Z,77.01
2017-05-17T14:03:35.709Z,77.11
2017-05-17T14:04:48.620Z,76.28
2017-05-17T14:06:01.524Z,76.28
2017-05-17T14:07:14.429Z,76.38
2017-05-17T14:08:27.347Z,77.11
2017-05-17T14:09:40.451Z,76.92
2017-05-17T14:10:53.350Z,77.01
2017-05-17T14:12:06.302Z,77.11
2017-05-17T14:13:18.719Z,76.25
2017-05-17T14:14:31.630Z,76.48
2017-05-17T14:15:44.550Z,76.28
2017-05-17T14:16:57.466Z,77.25
2017-05-17T14:18:10.386Z,76.96
2017-05-17T14:19:23.309Z,75.03
2017-05-17T14:20:35.939Z,75.03
2017-05-17T14:21:48.367Z,75.23
2017-05-17T14:23:00.308Z,76.28
2017-05-17T14:24:13.241Z,74.93
2017-05-17T14:25:25.182Z,74.16
2017-05-17T14:26:37.606Z,74.55
2017-05-17T14:27:50.531Z,74.16
2017-05-17T14:29:03.465Z,74.01
2017-05-17T14:30:16.387Z,73.62
2017-05-17T14:31:28.819Z,72.37
2017-05-17T14:32:40.762Z,72.56
2017-05-17T14:33:53.688Z,72.18
2017-05-17T14:35:05.625Z,72.27
2017-05-17T14:36:18.547Z,72.66
2017-05-17T14:37:31.468Z,71.6
2017-05-17T14:38:43.899Z,71.6
2017-05-17T14:39:56.829Z,71.6
2017-05-17T14:41:09.747Z,72.56
2017-05-17T14:42:22.665Z,72.18
2017-05-17T14:43:35.782Z,72.56
2017-05-17T14:44:48.227Z,72.37
2017-05-17T14:46:01.156Z,72.47
2017-05-17T14:47:13.587Z,73.24
2017-05-17T14:48:25.522Z,73.05
2017-05-17T14:49:38.455Z,72.18
2017-05-17T14:50:51.379Z,72.47
2017-05-17T14:52:04.306Z,72.56
2017-05-17T14:53:17.234Z,71.89
2017-05-17T14:54:29.175Z,71.06
2017-05-17T14:55:41.612Z,71.15
2017-05-17T14:56:54.539Z,71.12
2017-05-17T14:58:06.970Z,71.31
2017-05-17T14:59:19.883Z,71.41
2017-05-17T15:00:32.790Z,71.12
2017-05-17T15:01:45.691Z,71.41
2017-05-17T15:02:58.591Z,71.79
2017-05-17T15:04:11.004Z,72.08
2017-05-17T15:05:23.904Z,72.66
2017-05-17T15:06:36.309Z,73.24
2017-05-17T15:07:49.209Z,73.14
2017-05-17T15:09:02.114Z,72.47
2017-05-17T15:10:14.875Z,72.08
2017-05-17T15:11:27.777Z,71.6
2017-05-17T15:12:40.679Z,71.31
2017-05-17T15:13:53.589Z,71.41
2017-05-17T15:15:05.999Z,71.41
2017-05-17T15:16:18.408Z,71.34
2017-05-17T15:17:31.322Z,70.96
2017-05-17T15:18:43.737Z,71.06
2017-05-17T15:19:56.641Z,70.86
2017-05-17T15:21:08.572Z,70.76
2017-05-17T15:22:21.036Z,70.96
2017-05-17T15:23:33.941Z,69.9
2017-05-17T15:24:46.849Z,69.9
2017-05-17T15:25:59.759Z,69.71
2017-05-17T15:27:11.691Z,69.61
2017-05-17T15:28:24.597Z,69.32
2017-05-17T15:29:37.013Z,69.51
2017-05-17T15:30:49.423Z,69.42
2017-05-17T15:32:02.529Z,69.42
2017-05-17T15:33:14.939Z,70.19
2017-05-17T15:34:27.349Z,70.19
2017-05-17T15:35:40.254Z,69.61
2017-05-17T15:36:53.213Z,68.93
2017-05-17T15:38:06.121Z,69.03
2017-05-17T15:39:19.032Z,69.03
2017-05-17T15:40:31.941Z,68.84
2017-05-17T15:41:44.844Z,68.84